Time;durP1;ratioP1;P1;durP2;ratioP2;P2;SDS_P1;SDS_P2;PMS_P1;PMS_P2;Temp;Humidity;BMP_temperature;BMP_pressure;BME280_temperature;BME280_humidity;BME280_pressure;Samples;Min_cycle;Max_cycle;Signal;HPM_P1;HPM_P2
2023/01/27 00:00:06;;;;;;;13.82;8.07;;;4.70;99.90;;;;;;5053178;28;20445;-75
2023/01/27 00:02:32;;;;;;;10.77;6.68;;;4.50;99.90;;;;;;5052592;28;20450;-74
2023/01/27 00:04:58;;;;;;;12.93;8.27;;;4.30;99.90;;;;;;5013142;28;20771;-75
2023/01/27 00:07:24;;;;;;;13.10;8.48;;;4.40;99.90;;;;;;5053291;28;21057;-74
2023/01/27 00:09:49;;;;;;;11.55;7.78;;;4.20;99.90;;;;;;5032266;28;20464;-74
2023/01/27 00:15:09;;;;;;;12.13;8.32;;;4.10;99.90;;;;;;5048371;28;20441;-74
2023/01/27 00:17:35;;;;;;;15.18;9.55;;;4.20;99.90;;;;;;5050086;28;20406;-76
2023/01/27 00:20:01;;;;;;;10.75;8.23;;;4.20;99.90;;;;;;5049567;28;20462;-74
2023/01/27 00:25:12;;;;;;;12.10;8.25;;;6.00;99.90;;;;;;5046941;28;21163;-74
2023/01/27 00:27:38;;;;;;;12.67;8.70;;;4.10;99.90;;;;;;5049826;28;20442;-75
2023/01/27 00:30:05;;;;;;;13.27;8.35;;;5.70;99.90;;;;;;5027706;28;20964;-76
2023/01/27 00:35:16;;;;;;;12.77;9.43;;;4.20;99.90;;;;;;5047937;28;20425;-75
2023/01/27 00:37:42;;;;;;;14.55;9.77;;;4.10;99.90;;;;;;5029601;28;20444;-75
2023/01/27 00:40:13;;;;;;;11.90;9.20;;;4.00;99.90;;;;;;5044133;28;20506;-75
2023/01/27 00:42:38;;;;;;;11.63;9.63;;;4.30;99.90;;;;;;5049055;28;20417;-75
2023/01/27 00:47:50;;;;;;;12.18;9.30;;;4.10;99.90;;;;;;5048593;28;20479;-75
2023/01/27 00:50:16;;;;;;;13.27;9.00;;;4.20;99.90;;;;;;5049080;28;20421;-75
2023/01/27 00:52:42;;;;;;;11.80;8.40;;;4.00;99.90;;;;;;5047323;28;20497;-75
2023/01/27 00:55:14;;;;;;;12.50;8.40;;;4.00;99.90;;;;;;5046673;28;20441;-74
2023/01/27 00:57:39;;;;;;;12.38;8.07;;;4.00;99.90;;;;;;5046673;28;20417;-75
2023/01/27 01:00:08;;;;;;;11.95;7.85;;;4.10;99.90;;;;;;5040061;28;20418;-75
2023/01/27 01:02:34;;;;;;;9.73;8.43;;;4.00;99.90;;;;;;5029476;28;20445;-75
2023/01/27 01:05:00;;;;;;;10.17;7.30;;;4.00;99.90;;;;;;5044018;28;20807;-75
2023/01/27 01:07:26;;;;;;;10.67;7.00;;;4.00;99.90;;;;;;5032448;28;20414;-75
2023/01/27 01:09:51;;;;;;;12.93;7.93;;;4.00;99.90;;;;;;5046910;28;20478;-74
2023/01/27 01:12:17;;;;;;;7.95;6.78;;;4.10;99.90;;;;;;5048950;28;20432;-75
2023/01/27 01:14:43;;;;;;;11.32;6.93;;;4.10;99.90;;;;;;5041307;28;20429;-75
2023/01/27 01:17:08;;;;;;;9.50;6.05;;;4.10;99.90;;;;;;5048894;28;20504;-75
2023/01/27 01:19:34;;;;;;;10.20;6.07;;;4.00;99.90;;;;;;5030095;28;20916;-76
2023/01/27 01:22:00;;;;;;;8.35;5.85;;;4.10;99.90;;;;;;5045659;28;20431;-75
2023/01/27 01:24:26;;;;;;;8.43;5.93;;;4.10;99.90;;;;;;5043587;28;20421;-74
2023/01/27 01:26:51;;;;;;;8.20;5.47;;;4.20;99.90;;;;;;5048457;28;20504;-75
2023/01/27 01:29:17;;;;;;;7.87;5.27;;;4.60;99.90;;;;;;5047863;28;20907;-76
2023/01/27 01:31:43;;;;;;;6.80;4.83;;;4.00;99.90;;;;;;5047373;28;20429;-75
2023/01/27 01:34:08;;;;;;;9.10;5.70;;;4.10;99.90;;;;;;5044672;28;20475;-75
2023/01/27 01:36:34;;;;;;;8.33;5.50;;;4.20;99.90;;;;;;5045900;28;20479;-74
2023/01/27 01:39:00;;;;;;;8.60;5.53;;;4.10;99.90;;;;;;5047271;28;20505;-76
2023/01/27 01:41:26;;;;;;;7.80;5.17;;;5.60;99.90;;;;;;5046712;28;20429;-77
2023/01/27 01:43:51;;;;;;;8.18;5.43;;;4.10;99.90;;;;;;5047215;28;20452;-75
2023/01/27 01:46:18;;;;;;;9.27;5.70;;;4.10;99.90;;;;;;5041889;28;20900;-75
2023/01/27 01:48:52;;;;;;;6.88;5.40;;;4.00;99.90;;;;;;5036409;28;21126;-75
2023/01/27 01:51:29;;;;;;;10.05;5.53;;;4.10;99.90;;;;;;5046783;28;20516;-75
2023/01/27 01:54:08;;;;;;;9.63;5.45;;;4.00;99.90;;;;;;5038250;28;20452;-76
2023/01/27 01:56:51;;;;;;;7.30;5.45;;;4.10;99.90;;;;;;5045857;28;20527;-77
2023/01/27 01:59:22;;;;;;;8.73;6.10;;;4.10;99.90;;;;;;5028418;28;20460;-76
2023/01/27 02:01:49;;;;;;;10.18;5.90;;;5.20;99.90;;;;;;5046951;28;20940;-76
2023/01/27 02:04:22;;;;;;;8.35;4.68;;;4.00;99.90;;;;;;5046102;28;20500;-74
2023/01/27 02:07:07;;;;;;;11.60;5.75;;;4.10;99.90;;;;;;5045336;28;20425;-75
2023/01/27 02:09:33;;;;;;;12.63;5.75;;;4.00;99.90;;;;;;5041838;28;20487;-76
2023/01/27 02:11:59;;;;;;;7.38;4.93;;;4.10;99.90;;;;;;5043460;28;20908;-74
2023/01/27 02:14:25;;;;;;;8.63;4.50;;;4.10;99.90;;;;;;5041475;28;20425;-75
2023/01/27 02:16:51;;;;;;;5.82;4.22;;;4.10;99.90;;;;;;5025930;28;20512;-76
2023/01/27 02:19:31;;;;;;;8.35;4.25;;;5.60;99.90;;;;;;5046049;28;20429;-76
2023/01/27 02:21:58;;;;;;;8.23;4.05;;;4.40;99.90;;;;;;5046631;28;20457;-75
2023/01/27 02:24:32;;;;;;;6.65;4.60;;;5.80;99.90;;;;;;5046602;28;20425;-76
2023/01/27 02:26:58;;;;;;;9.88;4.68;;;4.10;99.90;;;;;;5045236;28;20792;-76
2023/01/27 02:29:24;;;;;;;8.60;4.57;;;4.10;99.90;;;;;;5043852;28;20471;-76
2023/01/27 02:31:50;;;;;;;8.20;4.95;;;4.10;99.90;;;;;;5043199;28;20433;-76
2023/01/27 02:34:19;;;;;;;10.43;5.23;;;6.30;99.90;;;;;;5041649;28;20461;-76
2023/01/27 02:36:53;;;;;;;13.15;4.57;;;4.00;99.90;;;;;;5043570;28;20438;-76
2023/01/27 02:39:22;;;;;;;5.75;3.63;;;4.10;99.90;;;;;;5043795;28;20547;-75
2023/01/27 02:41:53;;;;;;;8.73;3.47;;;6.20;99.90;;;;;;5044999;28;20440;-75
2023/01/27 02:44:19;;;;;;;7.30;3.28;;;6.30;99.90;;;;;;5044760;28;20544;-75
2023/01/27 02:46:46;;;;;;;8.05;2.40;;;4.30;99.90;;;;;;5044041;28;20428;-73
2023/01/27 02:49:12;;;;;;;6.43;2.58;;;4.10;99.90;;;;;;5044702;28;20789;-75
2023/01/27 02:51:38;;;;;;;5.03;2.63;;;4.10;99.90;;;;;;5045898;28;20443;-76
2023/01/27 02:54:04;;;;;;;6.93;3.45;;;4.20;99.90;;;;;;5038579;28;20434;-76
2023/01/27 02:56:31;;;;;;;8.77;3.78;;;4.10;99.90;;;;;;5026141;28;20445;-75
2023/01/27 02:58:57;;;;;;;5.40;3.60;;;4.10;99.90;;;;;;5045351;28;20421;-75
2023/01/27 03:01:24;;;;;;;5.90;3.37;;;4.10;99.90;;;;;;5026645;28;20494;-74
2023/01/27 03:03:50;;;;;;;5.80;3.10;;;4.00;99.90;;;;;;5043140;28;20429;-75
2023/01/27 03:06:16;;;;;;;5.88;3.17;;;5.10;99.90;;;;;;5046432;28;20763;-74
2023/01/27 03:08:43;;;;;;;5.68;2.45;;;4.10;99.90;;;;;;5045748;28;20429;-75
2023/01/27 03:11:09;;;;;;;5.40;2.45;;;4.00;99.90;;;;;;5045044;28;20485;-76
2023/01/27 03:13:38;;;;;;;4.60;2.10;;;4.10;99.90;;;;;;5045524;28;20434;-76
2023/01/27 03:18:50;;;;;;;8.07;2.17;;;4.00;99.90;;;;;;5044503;28;20505;-76
2023/01/27 03:21:17;;;;;;;7.28;2.20;;;4.10;99.90;;;;;;5039511;28;20436;-76
2023/01/27 03:23:47;;;;;;;5.00;1.63;;;3.80;99.90;;;;;;5045878;28;20421;-76
2023/01/27 03:26:13;;;;;;;6.43;1.63;;;4.90;99.90;;;;;;5046444;28;20503;-75
2023/01/27 03:28:39;;;;;;;6.97;1.50;;;4.10;99.90;;;;;;5046442;28;20448;-75
2023/01/27 03:31:18;;;;;;;6.10;1.47;;;4.10;99.90;;;;;;5043637;28;20859;-76
2023/01/27 03:33:46;;;;;;;7.50;2.22;;;4.10;99.90;;;;;;5044824;28;20433;-75
2023/01/27 03:47:10;;;;;;;4.88;1.40;;;4.10;99.90;;;;;;5048690;28;20432;-75
2023/01/27 03:49:35;;;;;;;3.38;1.23;;;5.20;99.90;;;;;;5047318;28;20429;-74
2023/01/27 03:52:01;;;;;;;3.65;0.55;;;4.00;99.90;;;;;;5048130;28;20488;-75
2023/01/27 03:54:27;;;;;;;3.85;1.33;;;4.10;99.90;;;;;;5042868;28;21172;-74
2023/01/27 03:56:53;;;;;;;5.97;1.20;;;4.10;99.90;;;;;;5048227;28;20426;-74
2023/01/27 03:59:18;;;;;;;3.50;1.10;;;4.10;99.90;;;;;;5048372;28;20425;-75
2023/01/27 04:01:45;;;;;;;4.85;1.00;;;4.10;99.90;;;;;;5048042;28;22063;-75
2023/01/27 04:06:57;;;;;;;4.60;1.33;;;4.00;99.90;;;;;;5047056;28;20424;-76
2023/01/27 04:09:27;;;;;;;5.27;1.00;;;4.00;99.90;;;;;;5048278;28;20467;-76
2023/01/27 04:11:54;;;;;;;3.72;1.40;;;3.80;99.90;;;;;;5047356;28;20429;-75
2023/01/27 04:14:31;;;;;;;4.85;0.80;;;3.80;99.90;;;;;;5047276;28;20432;-75
2023/01/27 04:16:58;;;;;;;3.70;1.00;;;3.80;99.90;;;;;;5025057;28;20425;-75
2023/01/27 04:19:24;;;;;;;2.70;0.80;;;3.70;99.90;;;;;;5046046;28;20425;-75
2023/01/27 04:21:50;;;;;;;2.63;0.85;;;3.70;99.90;;;;;;5047018;28;20432;-74
2023/01/27 04:24:21;;;;;;;5.73;1.10;;;3.80;99.90;;;;;;5047962;28;20903;-74
2023/01/27 04:26:53;;;;;;;2.70;0.75;;;3.80;99.90;;;;;;5048481;28;21001;-75
2023/01/27 04:29:20;;;;;;;3.13;0.88;;;3.80;99.90;;;;;;5044842;28;20425;-75
2023/01/27 04:31:46;;;;;;;3.10;0.95;;;4.90;99.90;;;;;;5043830;28;20429;-74
2023/01/27 04:34:12;;;;;;;3.65;0.93;;;3.70;99.90;;;;;;5043768;28;20421;-74
2023/01/27 04:36:40;;;;;;;3.08;0.95;;;3.70;99.90;;;;;;5044999;28;21261;-74
2023/01/27 04:39:07;;;;;;;4.32;0.88;;;3.70;99.90;;;;;;5044748;28;20424;-74
2023/01/27 04:41:32;;;;;;;3.67;1.20;;;3.70;99.90;;;;;;5046871;28;20520;-74
2023/01/27 04:43:58;;;;;;;1.73;0.70;;;3.90;99.90;;;;;;5046418;28;20419;-74
2023/01/27 04:46:24;;;;;;;4.80;1.10;;;4.70;99.90;;;;;;5046831;28;20643;-74
2023/01/27 04:48:49;;;;;;;3.73;1.10;;;3.60;99.90;;;;;;5043033;28;20421;-73
2023/01/27 04:51:15;;;;;;;5.65;1.17;;;3.60;99.90;;;;;;5031797;28;20437;-73
2023/01/27 04:53:42;;;;;;;3.03;0.80;;;3.70;99.90;;;;;;5037993;28;20848;-75
2023/01/27 04:56:21;;;;;;;5.38;1.45;;;3.60;99.90;;;;;;5011823;28;20437;-75
2023/01/27 04:58:47;;;;;;;3.13;1.27;;;3.60;99.90;;;;;;5048431;28;20456;-74
2023/01/27 05:01:13;;;;;;;3.10;0.88;;;3.60;99.90;;;;;;5048812;28;20478;-75
2023/01/27 05:03:38;;;;;;;4.90;0.85;;;4.50;99.90;;;;;;5044206;28;20429;-75
2023/01/27 05:06:04;;;;;;;7.43;0.90;;;3.60;99.90;;;;;;5019856;28;20445;-75
2023/01/27 05:08:30;;;;;;;3.58;1.02;;;3.60;99.90;;;;;;5038553;28;20431;-74
2023/01/27 05:10:56;;;;;;;4.80;1.10;;;3.60;99.90;;;;;;5042910;28;20481;-74
2023/01/27 05:13:21;;;;;;;3.43;0.97;;;3.60;99.90;;;;;;5017495;28;20430;-74
2023/01/27 05:15:47;;;;;;;3.87;1.27;;;3.60;99.90;;;;;;5046713;28;20445;-74
2023/01/27 05:18:13;;;;;;;5.57;1.60;;;3.60;99.90;;;;;;5048405;28;20424;-74
2023/01/27 05:20:39;;;;;;;6.28;1.63;;;3.60;99.90;;;;;;5023686;28;20928;-74
2023/01/27 05:25:49;;;;;;;5.13;1.00;;;3.40;99.90;;;;;;5042576;28;20413;-75
2023/01/27 05:28:15;;;;;;;5.60;1.40;;;3.50;99.90;;;;;;5030823;28;20420;-74
2023/01/27 05:30:40;;;;;;;5.65;1.13;;;3.50;99.90;;;;;;5046595;28;20421;-75
2023/01/27 05:33:07;;;;;;;3.30;1.00;;;3.50;99.90;;;;;;5026624;28;20835;-75
2023/01/27 05:35:33;;;;;;;4.97;1.10;;;3.40;99.90;;;;;;5046248;28;20437;-73
2023/01/27 05:37:59;;;;;;;4.18;1.00;;;4.70;99.90;;;;;;5045110;28;20504;-74
2023/01/27 05:40:25;;;;;;;5.70;1.85;;;3.40;99.90;;;;;;5029280;28;20512;-74
2023/01/27 05:42:52;;;;;;;6.40;1.35;;;3.20;99.90;;;;;;5047001;28;20472;-74
2023/01/27 05:45:18;;;;;;;4.43;1.38;;;3.40;99.90;;;;;;5026998;28;20436;-74
2023/01/27 05:47:53;;;;;;;3.55;0.90;;;3.40;99.90;;;;;;5034255;28;20500;-74
2023/01/27 05:50:18;;;;;;;4.60;1.10;;;3.40;99.90;;;;;;5046444;28;20418;-74
2023/01/27 05:52:44;;;;;;;2.70;0.88;;;3.40;99.90;;;;;;5047057;28;20432;-73
2023/01/27 05:55:10;;;;;;;3.30;1.20;;;3.40;99.90;;;;;;5044625;28;20437;-74
2023/01/27 05:57:36;;;;;;;5.73;1.23;;;3.40;99.90;;;;;;5047509;28;20794;-75
2023/01/27 06:00:02;;;;;;;3.70;1.40;;;3.40;99.90;;;;;;5028705;28;20519;-75
2023/01/27 06:02:27;;;;;;;3.50;1.33;;;3.40;99.90;;;;;;5046089;28;20417;-75
2023/01/27 06:04:53;;;;;;;3.20;1.10;;;3.40;99.90;;;;;;5042980;28;20457;-75
2023/01/27 06:07:19;;;;;;;4.05;0.93;;;3.00;99.90;;;;;;5046886;28;20842;-74
2023/01/27 06:09:44;;;;;;;2.83;0.90;;;3.40;99.90;;;;;;5042092;28;20432;-75
2023/01/27 06:12:10;;;;;;;6.23;1.27;;;3.70;99.90;;;;;;5045128;28;20421;-75
2023/01/27 06:14:36;;;;;;;4.93;1.33;;;3.40;99.90;;;;;;5028177;28;20429;-75
2023/01/27 06:17:02;;;;;;;3.07;0.90;;;5.30;99.90;;;;;;5046289;28;20887;-75
2023/01/27 06:19:27;;;;;;;4.37;1.40;;;3.40;99.90;;;;;;5041910;28;20420;-75
2023/01/27 06:21:53;;;;;;;4.50;1.30;;;3.40;99.90;;;;;;5045794;28;20855;-76
2023/01/27 06:24:18;;;;;;;5.83;1.20;;;3.50;99.90;;;;;;5040215;28;20855;-75
2023/01/27 06:26:44;;;;;;;3.83;1.07;;;3.40;99.90;;;;;;5041841;28;20548;-75
2023/01/27 06:29:10;;;;;;;3.63;1.30;;;3.40;99.90;;;;;;5043753;28;20452;-75
2023/01/27 06:31:36;;;;;;;4.67;1.47;;;3.50;99.90;;;;;;5043747;28;20915;-75
2023/01/27 06:34:02;;;;;;;4.17;1.47;;;4.70;99.90;;;;;;5047121;28;20457;-74
2023/01/27 06:36:28;;;;;;;5.87;1.70;;;3.50;99.90;;;;;;5047360;28;20426;-73
2023/01/27 06:38:54;;;;;;;4.20;1.33;;;3.40;99.90;;;;;;5024470;28;20456;-74
2023/01/27 06:41:19;;;;;;;6.45;1.05;;;4.20;99.90;;;;;;5047394;28;20429;-75
2023/01/27 06:43:45;;;;;;;1.77;0.80;;;3.50;99.90;;;;;;5045335;28;20446;-75
2023/01/27 06:46:11;;;;;;;4.00;1.40;;;3.50;99.90;;;;;;5045197;28;20933;-75
2023/01/27 06:48:36;;;;;;;4.93;1.30;;;4.70;99.90;;;;;;5026598;28;20819;-74
2023/01/27 06:51:03;;;;;;;4.35;0.85;;;3.50;99.90;;;;;;5046864;28;20512;-75
2023/01/27 06:53:30;;;;;;;2.70;1.27;;;3.50;99.90;;;;;;5028380;28;20425;-75
2023/01/27 06:56:00;;;;;;;6.20;1.40;;;4.90;99.90;;;;;;5012299;28;20516;-75
2023/01/27 06:58:27;;;;;;;5.47;1.30;;;4.10;99.90;;;;;;5040786;28;20421;-75
2023/01/27 07:00:55;;;;;;;3.67;1.03;;;4.50;99.90;;;;;;5011708;28;20959;-75
2023/01/27 07:03:21;;;;;;;4.03;0.98;;;3.50;99.90;;;;;;5027232;28;21118;-75
2023/01/27 07:05:47;;;;;;;5.65;1.30;;;3.60;99.90;;;;;;5045491;28;20894;-75
2023/01/27 07:08:12;;;;;;;3.65;0.98;;;4.80;99.90;;;;;;5047247;28;20500;-74
2023/01/27 07:10:38;;;;;;;3.30;1.30;;;3.50;99.90;;;;;;5047086;28;20461;-74
2023/01/27 07:13:09;;;;;;;2.58;0.88;;;4.00;99.90;;;;;;5028719;28;20481;-74
2023/01/27 07:15:35;;;;;;;6.32;1.40;;;3.50;99.90;;;;;;5045535;28;20429;-74
2023/01/27 07:18:02;;;;;;;3.72;1.10;;;3.50;99.90;;;;;;5022799;28;20464;-74
2023/01/27 07:20:28;;;;;;;4.63;1.30;;;3.60;99.90;;;;;;5030987;28;20460;-74
2023/01/27 07:23:02;;;;;;;2.55;1.02;;;3.60;99.90;;;;;;5051257;28;20421;-75
2023/01/27 07:25:30;;;;;;;2.92;0.93;;;3.60;99.90;;;;;;5050028;28;20821;-76
2023/01/27 07:28:00;;;;;;;3.80;1.10;;;3.60;99.90;;;;;;5049953;28;20455;-75
2023/01/27 07:30:27;;;;;;;3.83;0.80;;;3.50;99.90;;;;;;5031704;28;20429;-75
2023/01/27 07:32:54;;;;;;;2.95;1.00;;;5.40;99.90;;;;;;5049493;28;20404;-74
2023/01/27 07:35:20;;;;;;;3.20;0.80;;;3.50;99.90;;;;;;5048635;28;20916;-74
2023/01/27 07:37:46;;;;;;;6.05;1.00;;;3.50;99.90;;;;;;5050611;28;20417;-75
2023/01/27 07:40:12;;;;;;;5.72;1.77;;;3.50;99.90;;;;;;5048911;28;20860;-74
2023/01/27 07:42:39;;;;;;;6.00;1.50;;;3.60;99.90;;;;;;5045027;28;20427;-74
2023/01/27 07:45:05;;;;;;;5.82;1.00;;;3.50;99.90;;;;;;5047868;28;20508;-76
2023/01/27 07:47:31;;;;;;;5.07;0.95;;;3.60;99.90;;;;;;5048836;28;21140;-74
2023/01/27 07:49:56;;;;;;;3.87;0.70;;;4.80;99.90;;;;;;5047023;28;20479;-74
2023/01/27 07:52:22;;;;;;;3.27;1.00;;;3.60;99.90;;;;;;5049066;28;20421;-75
2023/01/27 07:54:48;;;;;;;3.90;0.90;;;3.90;99.90;;;;;;5030010;28;20972;-75
2023/01/27 07:57:13;;;;;;;3.70;0.93;;;3.60;99.90;;;;;;5042345;28;20509;-75
2023/01/27 07:59:39;;;;;;;2.90;0.90;;;3.70;99.90;;;;;;5048041;28;20428;-75
2023/01/27 08:02:05;;;;;;;3.43;0.70;;;3.70;99.90;;;;;;5025595;28;20425;-75
2023/01/27 08:04:31;;;;;;;4.55;1.17;;;3.60;99.90;;;;;;5041168;28;20488;-73
2023/01/27 08:06:56;;;;;;;3.45;1.00;;;3.70;99.90;;;;;;5030803;28;20590;-76
2023/01/27 08:09:22;;;;;;;4.53;0.90;;;3.70;99.90;;;;;;5048907;28;20895;-77
2023/01/27 08:11:48;;;;;;;2.95;0.90;;;3.60;99.90;;;;;;5030590;28;20444;-75
2023/01/27 08:14:13;;;;;;;3.72;1.13;;;3.70;99.90;;;;;;5040220;28;20804;-74
2023/01/27 08:16:39;;;;;;;3.78;0.85;;;4.70;99.90;;;;;;5046803;28;20486;-74
2023/01/27 08:19:05;;;;;;;3.53;1.20;;;3.60;99.90;;;;;;5050109;28;20413;-75
2023/01/27 08:21:31;;;;;;;3.38;0.90;;;3.60;99.90;;;;;;5046362;28;20823;-74
2023/01/27 08:23:59;;;;;;;2.65;1.10;;;3.80;99.90;;;;;;5050180;28;20405;-75
2023/01/27 08:26:25;;;;;;;4.07;1.07;;;4.30;99.90;;;;;;5046818;28;20861;-76
2023/01/27 08:28:51;;;;;;;3.47;1.10;;;3.60;99.90;;;;;;5047462;28;20456;-74
2023/01/27 08:31:17;;;;;;;4.10;1.20;;;3.60;99.90;;;;;;5026759;28;20520;-74
2023/01/27 08:33:44;;;;;;;3.35;1.10;;;3.70;99.90;;;;;;5033535;28;20436;-74
2023/01/27 08:36:14;;;;;;;4.47;1.27;;;3.70;99.90;;;;;;5047502;28;20437;-75
2023/01/27 08:38:41;;;;;;;2.35;1.05;;;3.70;99.90;;;;;;5030701;28;20477;-75
2023/01/27 08:41:12;;;;;;;4.90;1.20;;;3.70;99.90;;;;;;5048851;28;20991;-75
2023/01/27 08:43:38;;;;;;;3.45;0.95;;;3.70;99.90;;;;;;5049228;28;20903;-74
2023/01/27 08:46:05;;;;;;;8.25;1.77;;;3.70;99.90;;;;;;5046371;28;20508;-75
2023/01/27 08:48:32;;;;;;;6.77;1.20;;;3.70;99.90;;;;;;5048684;28;20592;-75
2023/01/27 08:50:59;;;;;;;4.10;1.38;;;3.80;99.90;;;;;;5013817;28;20524;-77
2023/01/27 08:53:25;;;;;;;4.30;1.58;;;3.70;99.90;;;;;;5044691;28;20421;-74
2023/01/27 08:55:53;;;;;;;3.87;1.40;;;3.90;99.90;;;;;;5048858;28;20441;-74
2023/01/27 08:58:20;;;;;;;6.50;1.50;;;4.30;99.90;;;;;;5047545;28;20503;-74
2023/01/27 09:00:46;;;;;;;3.70;1.33;;;3.80;99.90;;;;;;5047284;28;20491;-74
2023/01/27 09:03:12;;;;;;;5.43;1.60;;;3.90;99.90;;;;;;5046581;28;21159;-74
2023/01/27 09:05:39;;;;;;;5.30;1.45;;;3.90;99.90;;;;;;5019587;28;20440;-74
2023/01/27 09:08:05;;;;;;;7.75;1.38;;;4.00;99.90;;;;;;5049404;28;20408;-73
2023/01/27 09:10:31;;;;;;;3.92;0.85;;;3.90;99.90;;;;;;5047493;28;20418;-74
2023/01/27 09:12:57;;;;;;;3.28;1.33;;;4.20;99.90;;;;;;5048848;28;20431;-72
2023/01/27 09:15:23;;;;;;;2.63;0.90;;;4.00;99.90;;;;;;5048800;28;20431;-73
2023/01/27 09:17:49;;;;;;;5.40;1.33;;;4.00;99.90;;;;;;5047147;28;20417;-73
2023/01/27 09:20:15;;;;;;;6.20;1.70;;;4.40;99.90;;;;;;5029640;28;20433;-73
2023/01/27 09:22:41;;;;;;;3.83;1.17;;;4.00;99.90;;;;;;5047223;28;20820;-73
2023/01/27 09:25:10;;;;;;;4.28;1.42;;;4.00;99.90;;;;;;5028926;28;20520;-74
2023/01/27 09:27:36;;;;;;;7.53;1.42;;;4.10;99.90;;;;;;5048102;28;20537;-73
2023/01/27 09:30:02;;;;;;;6.43;1.53;;;5.80;99.90;;;;;;5046432;28;20491;-75
2023/01/27 09:32:27;;;;;;;5.57;0.90;;;4.00;99.90;;;;;;5045959;28;20452;-76
2023/01/27 09:34:53;;;;;;;5.10;0.93;;;4.10;99.90;;;;;;5048505;28;20847;-76
2023/01/27 09:37:19;;;;;;;2.57;1.37;;;4.10;99.90;;;;;;5046427;28;20437;-72
2023/01/27 09:39:56;;;;;;;4.40;0.83;;;4.10;99.90;;;;;;5047500;28;20417;-73
2023/01/27 09:42:49;;;;;;;3.42;1.55;;;4.10;99.90;;;;;;5029721;28;20555;-74
2023/01/27 09:45:30;;;;;;;5.20;1.60;;;4.30;99.90;;;;;;5038947;28;20937;-74
2023/01/27 09:48:09;;;;;;;3.63;1.20;;;4.40;99.90;;;;;;5011740;28;20441;-74
2023/01/27 09:50:46;;;;;;;5.00;1.17;;;4.40;99.90;;;;;;5046917;28;20421;-74
2023/01/27 09:53:30;;;;;;;5.17;2.07;;;4.40;99.90;;;;;;5048614;28;20420;-74
2023/01/27 09:56:14;;;;;;;4.10;1.10;;;4.30;99.90;;;;;;5048507;28;20433;-73
2023/01/27 09:59:05;;;;;;;6.32;1.20;;;4.20;99.90;;;;;;5049059;28;20475;-74
2023/01/27 10:02:00;;;;;;;5.68;1.60;;;4.40;99.90;;;;;;5032018;28;20737;-75
2023/01/27 10:04:40;;;;;;;2.20;1.10;;;4.50;99.90;;;;;;5029308;28;20414;-75
2023/01/27 10:07:14;;;;;;;5.80;1.90;;;4.50;99.90;;;;;;5047774;28;20516;-76
2023/01/27 10:09:58;;;;;;;4.80;1.30;;;4.50;99.90;;;;;;5048042;28;20422;-73
2023/01/27 10:12:59;;;;;;;5.45;1.70;;;4.70;99.90;;;;;;5048544;28;20737;-75
2023/01/27 10:16:08;;;;;;;6.95;1.65;;;4.50;99.90;;;;;;5039323;28;20437;-75
2023/01/27 10:18:55;;;;;;;3.67;1.33;;;4.50;99.90;;;;;;5041824;28;20433;-74
2023/01/27 10:21:36;;;;;;;4.82;2.10;;;4.50;99.90;;;;;;5043081;28;20425;-74
2023/01/27 10:24:36;;;;;;;3.58;1.63;;;4.40;99.90;;;;;;5029415;28;20772;-73
2023/01/27 10:27:20;;;;;;;5.25;1.55;;;4.50;99.90;;;;;;5040660;28;20448;-72
2023/01/27 10:29:57;;;;;;;2.22;0.98;;;4.80;99.90;;;;;;5046314;28;20425;-71
2023/01/27 10:32:27;;;;;;;2.55;0.77;;;4.60;99.90;;;;;;5027283;28;20418;-74
2023/01/27 10:35:10;;;;;;;4.35;0.80;;;4.70;99.90;;;;;;5044738;28;20512;-73
2023/01/27 10:37:57;;;;;;;1.20;0.43;;;4.60;99.90;;;;;;5044343;28;20429;-71
2023/01/27 10:40:52;;;;;;;2.13;0.60;;;4.40;99.90;;;;;;5036272;28;20500;-71
2023/01/27 10:43:36;;;;;;;1.25;0.60;;;4.20;99.90;;;;;;5045738;28;20480;-74
2023/01/27 10:46:11;;;;;;;2.78;0.60;;;4.20;99.90;;;;;;5044489;28;20784;-73
2023/01/27 10:48:42;;;;;;;2.92;1.98;;;4.20;99.90;;;;;;5045885;28;20429;-71
2023/01/27 10:51:12;;;;;;;4.45;1.80;;;4.30;99.90;;;;;;5040675;28;20498;-71
2023/01/27 10:54:18;;;;;;;1.80;0.68;;;4.50;99.90;;;;;;5024833;28;20435;-72
2023/01/27 10:56:55;;;;;;;3.35;0.95;;;4.60;99.90;;;;;;4943893;29;20445;-71
2023/01/27 10:59:53;;;;;;;1.50;0.45;;;4.70;99.90;;;;;;5031168;28;20434;-72
2023/01/27 11:02:35;;;;;;;0.93;0.40;;;4.80;99.90;;;;;;5036160;28;20423;-71
2023/01/27 11:05:18;;;;;;;0.60;0.20;;;4.80;99.90;;;;;;5042871;28;20424;-72
2023/01/27 11:08:02;;;;;;;3.13;0.38;;;4.70;99.90;;;;;;5046846;28;20459;-73
2023/01/27 11:13:41;;;;;;;1.20;0.25;;;4.60;99.90;;;;;;5045653;28;20496;-71
2023/01/27 11:16:17;;;;;;;0.28;0.28;;;4.50;99.90;;;;;;5038905;28;20977;-73
2023/01/27 11:18:55;;;;;;;0.52;0.30;;;4.50;99.90;;;;;;5044466;28;20398;-74
2023/01/27 11:21:24;;;;;;;3.00;0.80;;;4.40;99.90;;;;;;5028022;28;20551;-73
2023/01/27 11:23:55;;;;;;;2.20;0.55;;;4.50;99.90;;;;;;5045536;28;20938;-75
2023/01/27 11:26:30;;;;;;;1.20;0.50;;;4.50;99.90;;;;;;5046430;28;20433;-73
2023/01/27 11:29:14;;;;;;;1.65;0.90;;;4.50;99.90;;;;;;5028495;28;20498;-72
2023/01/27 11:32:17;;;;;;;2.35;0.68;;;4.40;99.90;;;;;;5043240;28;20425;-72
2023/01/27 11:35:00;;;;;;;0.73;0.40;;;4.50;99.90;;;;;;5044670;28;20432;-73
2023/01/27 11:37:41;;;;;;;1.40;0.55;;;4.50;99.90;;;;;;5027341;28;20433;-72
2023/01/27 11:40:25;;;;;;;1.15;0.55;;;4.50;99.90;;;;;;5028368;28;20498;-75
2023/01/27 11:42:51;;;;;;;1.02;0.60;;;4.50;99.90;;;;;;5037321;28;20494;-71
2023/01/27 11:45:19;;;;;;;0.80;0.40;;;4.50;99.90;;;;;;5045899;28;20421;-73
2023/01/27 11:47:49;;;;;;;1.40;0.90;;;4.30;99.90;;;;;;5045912;28;20494;-71
2023/01/27 11:50:17;;;;;;;1.60;0.98;;;4.30;99.90;;;;;;4997524;28;20442;-72
2023/01/27 11:52:48;;;;;;;2.17;0.50;;;4.40;99.90;;;;;;5028214;28;20425;-71
2023/01/27 11:55:19;;;;;;;1.73;0.70;;;4.30;99.90;;;;;;5046396;28;20424;-72
2023/01/27 11:57:51;;;;;;;1.27;0.70;;;4.30;99.90;;;;;;5042484;28;20464;-72
2023/01/27 12:00:24;;;;;;;1.40;0.95;;;4.20;99.90;;;;;;5042207;28;20929;-73
2023/01/27 12:03:26;;;;;;;1.80;0.87;;;4.30;99.90;;;;;;5045702;28;20429;-76
2023/01/27 12:05:58;;;;;;;0.50;0.50;;;4.30;99.90;;;;;;5026287;28;20435;-76
2023/01/27 12:08:44;;;;;;;1.85;0.90;;;4.30;99.90;;;;;;5046547;28;20421;-75
2023/01/27 12:11:26;;;;;;;0.80;0.70;;;4.30;99.90;;;;;;5049869;28;20743;-75
2023/01/27 12:14:00;;;;;;;0.70;0.70;;;4.20;99.90;;;;;;5048166;28;20441;-76
2023/01/27 12:16:40;;;;;;;1.88;0.90;;;4.30;99.90;;;;;;5049082;28;20436;-75
2023/01/27 12:19:24;;;;;;;1.63;0.95;;;6.40;99.90;;;;;;5030721;28;20403;-75
2023/01/27 12:21:55;;;;;;;4.03;1.60;;;4.30;99.90;;;;;;5032872;28;20494;-75
2023/01/27 12:24:30;;;;;;;2.78;2.10;;;5.30;99.90;;;;;;5032493;28;20955;-77
2023/01/27 12:26:57;;;;;;;4.18;1.80;;;4.20;99.90;;;;;;5031739;28;20436;-76
2023/01/27 12:29:37;;;;;;;2.50;1.48;;;4.10;99.90;;;;;;5048204;28;20838;-72
2023/01/27 12:32:20;;;;;;;5.20;2.70;;;4.10;99.90;;;;;;5046684;28;20502;-72
2023/01/27 12:34:55;;;;;;;3.25;1.80;;;4.00;99.90;;;;;;5047230;28;20500;-72
2023/01/27 12:37:30;;;;;;;2.17;1.70;;;4.10;99.90;;;;;;5048935;28;20428;-72
2023/01/27 12:40:00;;;;;;;2.33;1.80;;;5.30;99.90;;;;;;5031144;28;20433;-73
2023/01/27 12:42:39;;;;;;;2.42;1.98;;;4.00;99.90;;;;;;5029352;28;20423;-73
2023/01/27 12:45:23;;;;;;;3.10;2.20;;;4.00;99.90;;;;;;5049320;28;20973;-71
2023/01/27 12:48:07;;;;;;;3.58;2.25;;;3.90;99.90;;;;;;5049218;28;20923;-76
2023/01/27 12:50:36;;;;;;;5.07;2.67;;;4.00;99.90;;;;;;5035724;28;20491;-76
2023/01/27 12:53:09;;;;;;;2.28;2.08;;;3.90;99.90;;;;;;5045468;28;20938;-76
2023/01/27 12:55:40;;;;;;;3.40;1.90;;;3.90;99.90;;;;;;5048235;28;20425;-74
2023/01/27 12:58:37;;;;;;;3.45;2.25;;;3.90;99.90;;;;;;5029206;28;20425;-71
2023/01/27 13:01:26;;;;;;;3.15;2.47;;;3.80;99.90;;;;;;5029599;28;20433;-77
2023/01/27 13:03:59;;;;;;;4.32;3.00;;;3.90;99.90;;;;;;5047739;28;20455;-74
2023/01/27 13:06:51;;;;;;;3.88;2.92;;;4.00;99.90;;;;;;5047556;28;20428;-74
2023/01/27 13:09:20;;;;;;;4.55;2.25;;;3.90;99.90;;;;;;5047008;28;20453;-75
2023/01/27 13:11:45;;;;;;;3.33;2.58;;;3.90;99.90;;;;;;5047079;28;20421;-73
2023/01/27 13:14:16;;;;;;;4.28;2.30;;;5.40;99.90;;;;;;5048707;28;20432;-74
2023/01/27 13:16:51;;;;;;;2.87;2.67;;;3.90;99.90;;;;;;5028788;28;20828;-74
2023/01/27 13:19:17;;;;;;;3.22;2.78;;;3.90;99.90;;;;;;5045797;28;20409;-73
2023/01/27 13:21:47;;;;;;;3.78;2.20;;;3.80;99.90;;;;;;5047405;28;20425;-73
2023/01/27 13:24:20;;;;;;;3.45;2.58;;;3.90;99.90;;;;;;5048197;28;20527;-73
2023/01/27 13:26:48;;;;;;;3.22;2.30;;;4.30;99.90;;;;;;5029636;28;20433;-73
2023/01/27 13:29:27;;;;;;;4.00;2.53;;;3.90;99.90;;;;;;5030602;28;20457;-73
2023/01/27 13:32:00;;;;;;;3.27;2.60;;;3.90;99.90;;;;;;5028071;28;20433;-74
2023/01/27 13:34:32;;;;;;;4.00;3.15;;;3.90;99.90;;;;;;5046118;28;20421;-73
2023/01/27 13:37:01;;;;;;;3.30;2.33;;;3.80;99.90;;;;;;5038869;28;20436;-74
2023/01/27 13:39:53;;;;;;;4.90;3.37;;;3.70;99.90;;;;;;5029867;28;21202;-74
2023/01/27 13:42:41;;;;;;;4.50;3.00;;;3.70;99.90;;;;;;5046858;28;20499;-72
2023/01/27 13:45:23;;;;;;;3.50;3.00;;;4.50;99.90;;;;;;5041382;28;20504;-74